WZZ1511 EPSC-ENGM
Flight info
| Callsign | WZZ1511 |
|---|---|
| Flight time | 1h 35m |
| Altitude | 36000 |
| Route | NEHIM DCT POKEN DCT SABAK DCT LUNIP |
| Aircraft | A21N/M-SDE1E2E3FGIJ1J4RWXY/LB1 |
Departure
| Time | 2026-05-07 20:37 |
|---|---|
| Airport | Solidarity Szczecin–Goleniów Airport (EPSC) |
Arrival
| Time | 2026-05-07 22:13 |
|---|---|
| Airport | Oslo-Gardermoen International Airport (ENGM) |
| Time | Latitude | Longitude | Altitude | Speed | Heading |
|---|---|---|---|---|---|
| 2026-05-07 20:10 | 53.59312 | 14.89257 | 162 ft | 0 kts | 40° |
| 2026-05-07 20:31 | 53.59313 | 14.89259 | 162 ft | 0 kts | 40° |
| 2026-05-07 20:31 | 53.59318 | 14.89270 | 162 ft | 1 kts | 82° |
| 2026-05-07 20:31 | 53.59308 | 14.89273 | 162 ft | 3 kts | 220° |
| 2026-05-07 20:31 | 53.59287 | 14.89230 | 162 ft | 5 kts | 220° |
| 2026-05-07 20:32 | 53.59246 | 14.89185 | 162 ft | 9 kts | 190° |
| 2026-05-07 20:32 | 53.59187 | 14.89259 | 162 ft | 13 kts | 130° |
| 2026-05-07 20:32 | 53.59118 | 14.89394 | 162 ft | 16 kts | 130° |
| 2026-05-07 20:32 | 53.59036 | 14.89553 | 162 ft | 19 kts | 131° |
| 2026-05-07 20:33 | 53.58939 | 14.89741 | 162 ft | 22 kts | 131° |
| 2026-05-07 20:33 | 53.58838 | 14.89936 | 162 ft | 22 kts | 132° |
| 2026-05-07 20:33 | 53.58738 | 14.90132 | 161 ft | 22 kts | 130° |
| 2026-05-07 20:33 | 53.58638 | 14.90331 | 161 ft | 22 kts | 130° |
| 2026-05-07 20:34 | 53.58536 | 14.90524 | 161 ft | 22 kts | 131° |
| 2026-05-07 20:34 | 53.58433 | 14.90719 | 161 ft | 22 kts | 132° |
| 2026-05-07 20:34 | 53.58332 | 14.90917 | 162 ft | 22 kts | 130° |
| 2026-05-07 20:34 | 53.58232 | 14.91113 | 161 ft | 22 kts | 130° |
| 2026-05-07 20:35 | 53.58130 | 14.91309 | 161 ft | 22 kts | 130° |
| 2026-05-07 20:35 | 53.58030 | 14.91505 | 161 ft | 22 kts | 130° |
| 2026-05-07 20:35 | 53.57929 | 14.91707 | 161 ft | 22 kts | 129° |
| 2026-05-07 20:35 | 53.57835 | 14.91759 | 161 ft | 14 kts | 212° |
| 2026-05-07 20:36 | 53.57770 | 14.91636 | 161 ft | 13 kts | 257° |
| 2026-05-07 20:36 | 53.57782 | 14.91563 | 161 ft | 0 kts | 309° |
| 2026-05-07 20:36 | 53.57782 | 14.91562 | 161 ft | 0 kts | 309° |
| 2026-05-07 20:36 | 53.57792 | 14.91541 | 161 ft | 7 kts | 309° |
| 2026-05-07 20:37 | 53.57957 | 14.91218 | 161 ft | 72 kts | 311° |
| 2026-05-07 20:37 | 53.58431 | 14.90303 | 162 ft | 133 kts | 310° |
| 2026-05-07 20:37 | 53.59141 | 14.88934 | 319 ft | 167 kts | 313° |
| 2026-05-07 20:37 | 53.59908 | 14.87486 | 907 ft | 168 kts | 314° |
| 2026-05-07 20:38 | 53.60690 | 14.86025 | 1536 ft | 171 kts | 316° |
| 2026-05-07 20:38 | 53.61479 | 14.84541 | 2181 ft | 169 kts | 316° |
| 2026-05-07 20:38 | 53.62257 | 14.83008 | 2571 ft | 178 kts | 315° |
| 2026-05-07 20:38 | 53.63082 | 14.81369 | 2873 ft | 191 kts | 315° |
| 2026-05-07 20:39 | 53.64094 | 14.79875 | 3178 ft | 198 kts | 342° |
| 2026-05-07 20:39 | 53.65459 | 14.79758 | 3467 ft | 204 kts | 17° |
| 2026-05-07 20:39 | 53.66726 | 14.80936 | 3721 ft | 221 kts | 41° |
| 2026-05-07 20:39 | 53.67925 | 14.82702 | 4096 ft | 237 kts | 42° |
| 2026-05-07 20:40 | 53.69213 | 14.84593 | 4638 ft | 248 kts | 41° |
| 2026-05-07 20:40 | 53.70526 | 14.86488 | 5391 ft | 251 kts | 41° |
| 2026-05-07 20:40 | 53.71845 | 14.88373 | 6156 ft | 253 kts | 41° |
| 2026-05-07 20:40 | 53.73194 | 14.90294 | 6903 ft | 256 kts | 40° |
| 2026-05-07 20:41 | 53.74559 | 14.92235 | 7619 ft | 260 kts | 40° |
| 2026-05-07 20:41 | 53.75939 | 14.94196 | 8328 ft | 263 kts | 40° |
| 2026-05-07 20:41 | 53.77341 | 14.96189 | 9021 ft | 268 kts | 40° |
| 2026-05-07 20:41 | 53.78780 | 14.98235 | 9696 ft | 272 kts | 40° |
| 2026-05-07 20:42 | 53.80237 | 15.00308 | 10305 ft | 278 kts | 40° |
| 2026-05-07 20:42 | 53.81753 | 15.02468 | 10659 ft | 293 kts | 40° |
| 2026-05-07 20:42 | 53.83339 | 15.04728 | 11002 ft | 307 kts | 40° |
| 2026-05-07 20:42 | 53.84982 | 15.07073 | 11568 ft | 313 kts | 40° |
| 2026-05-07 20:43 | 53.86645 | 15.09448 | 12213 ft | 316 kts | 40° |
| 2026-05-07 20:43 | 53.88330 | 15.11861 | 12815 ft | 320 kts | 40° |
| 2026-05-07 20:43 | 53.90029 | 15.14296 | 13414 ft | 323 kts | 40° |
| 2026-05-07 20:43 | 53.91759 | 15.16778 | 14008 ft | 326 kts | 40° |
| 2026-05-07 20:44 | 53.93496 | 15.19227 | 14566 ft | 329 kts | 36° |
| 2026-05-07 20:44 | 53.95558 | 15.20894 | 15062 ft | 333 kts | 13° |
| 2026-05-07 20:44 | 53.97869 | 15.21066 | 15613 ft | 337 kts | 351° |
| 2026-05-07 20:44 | 54.00083 | 15.19832 | 16145 ft | 340 kts | 336° |
| 2026-05-07 20:45 | 54.02249 | 15.18166 | 16659 ft | 344 kts | 336° |
| 2026-05-07 20:45 | 54.04425 | 15.16484 | 17150 ft | 347 kts | 336° |
| 2026-05-07 20:45 | 54.06641 | 15.14779 | 17647 ft | 350 kts | 336° |
| 2026-05-07 20:45 | 54.08861 | 15.13079 | 18142 ft | 353 kts | 336° |
| 2026-05-07 20:46 | 54.11110 | 15.11361 | 18631 ft | 355 kts | 336° |
| 2026-05-07 20:46 | 54.13360 | 15.09643 | 19111 ft | 358 kts | 336° |
| 2026-05-07 20:46 | 54.15636 | 15.07906 | 19578 ft | 360 kts | 336° |
| 2026-05-07 20:46 | 54.17922 | 15.06160 | 20031 ft | 363 kts | 336° |
| 2026-05-07 20:47 | 54.20231 | 15.04397 | 20472 ft | 366 kts | 336° |
| 2026-05-07 20:47 | 54.22566 | 15.02611 | 20900 ft | 369 kts | 337° |
| 2026-05-07 20:47 | 54.24897 | 15.00829 | 21314 ft | 371 kts | 336° |
| 2026-05-07 20:47 | 54.27276 | 14.99008 | 21729 ft | 374 kts | 336° |
| 2026-05-07 20:48 | 54.29636 | 14.97198 | 22137 ft | 377 kts | 336° |
| 2026-05-07 20:48 | 54.32044 | 14.95349 | 22539 ft | 379 kts | 336° |
| 2026-05-07 20:48 | 54.34443 | 14.93506 | 22933 ft | 381 kts | 336° |
| 2026-05-07 20:48 | 54.36850 | 14.91652 | 23324 ft | 383 kts | 336° |
| 2026-05-07 20:49 | 54.39274 | 14.89782 | 23688 ft | 386 kts | 336° |
| 2026-05-07 20:49 | 54.41738 | 14.87880 | 24048 ft | 389 kts | 336° |
| 2026-05-07 20:49 | 54.44220 | 14.85960 | 24427 ft | 391 kts | 336° |
| 2026-05-07 20:49 | 54.46690 | 14.84048 | 24816 ft | 392 kts | 336° |
| 2026-05-07 20:50 | 54.49172 | 14.82124 | 25223 ft | 393 kts | 336° |
| 2026-05-07 20:50 | 54.51686 | 14.80172 | 25636 ft | 394 kts | 336° |
| 2026-05-07 20:50 | 54.54182 | 14.78233 | 26026 ft | 395 kts | 336° |
| 2026-05-07 20:50 | 54.56689 | 14.76282 | 26357 ft | 397 kts | 336° |
| 2026-05-07 20:51 | 54.59212 | 14.74316 | 26644 ft | 401 kts | 336° |
| 2026-05-07 20:51 | 54.61752 | 14.72336 | 26938 ft | 403 kts | 336° |
| 2026-05-07 20:51 | 54.64324 | 14.70324 | 27249 ft | 405 kts | 336° |
| 2026-05-07 20:51 | 54.66907 | 14.68298 | 27568 ft | 407 kts | 336° |
| 2026-05-07 20:52 | 54.69515 | 14.66250 | 27877 ft | 409 kts | 336° |
| 2026-05-07 20:52 | 54.72115 | 14.64207 | 28177 ft | 411 kts | 336° |
| 2026-05-07 20:52 | 54.74703 | 14.62173 | 28471 ft | 413 kts | 336° |
| 2026-05-07 20:52 | 54.77306 | 14.60123 | 28772 ft | 414 kts | 336° |
| 2026-05-07 20:53 | 54.79937 | 14.58048 | 29072 ft | 416 kts | 336° |
| 2026-05-07 20:53 | 54.82573 | 14.55967 | 29370 ft | 417 kts | 337° |
| 2026-05-07 20:53 | 54.85207 | 14.53893 | 29671 ft | 419 kts | 337° |
| 2026-05-07 20:53 | 54.87886 | 14.51782 | 29937 ft | 421 kts | 336° |
| 2026-05-07 20:54 | 54.90557 | 14.49670 | 30182 ft | 423 kts | 336° |
| 2026-05-07 20:54 | 54.93242 | 14.47543 | 30430 ft | 425 kts | 336° |
| 2026-05-07 20:54 | 54.95913 | 14.45424 | 30673 ft | 427 kts | 336° |
| 2026-05-07 20:54 | 54.98631 | 14.43261 | 30936 ft | 428 kts | 336° |
| 2026-05-07 20:55 | 55.01364 | 14.41083 | 31174 ft | 430 kts | 337° |
| 2026-05-07 20:55 | 55.04074 | 14.38919 | 31383 ft | 431 kts | 337° |
| 2026-05-07 20:55 | 55.06786 | 14.36750 | 31606 ft | 432 kts | 337° |
| 2026-05-07 20:55 | 55.09545 | 14.34543 | 31832 ft | 433 kts | 336° |
| 2026-05-07 20:56 | 55.12312 | 14.32327 | 32037 ft | 435 kts | 336° |
| 2026-05-07 20:56 | 55.15089 | 14.30098 | 32239 ft | 437 kts | 336° |
| 2026-05-07 20:56 | 55.17854 | 14.27873 | 32435 ft | 438 kts | 336° |
| 2026-05-07 20:56 | 55.20652 | 14.25619 | 32688 ft | 438 kts | 336° |
| 2026-05-07 20:57 | 55.23456 | 14.23358 | 32982 ft | 437 kts | 336° |
| 2026-05-07 20:57 | 55.26207 | 14.21135 | 33248 ft | 436 kts | 336° |
| 2026-05-07 20:57 | 55.28979 | 14.18892 | 33504 ft | 436 kts | 336° |
| 2026-05-07 20:57 | 55.31755 | 14.16642 | 33761 ft | 436 kts | 337° |
| 2026-05-07 20:58 | 55.34470 | 14.14440 | 34015 ft | 435 kts | 337° |
| 2026-05-07 20:58 | 55.37246 | 14.12182 | 34278 ft | 435 kts | 336° |
| 2026-05-07 20:58 | 55.39978 | 14.09959 | 34525 ft | 435 kts | 337° |
| 2026-05-07 20:58 | 55.42731 | 14.07715 | 34732 ft | 435 kts | 337° |
| 2026-05-07 20:59 | 55.45489 | 14.05462 | 34904 ft | 436 kts | 337° |
| 2026-05-07 20:59 | 55.48263 | 14.03195 | 35026 ft | 437 kts | 337° |
| 2026-05-07 20:59 | 55.51008 | 14.00948 | 35130 ft | 439 kts | 337° |
| 2026-05-07 21:00 | 55.56614 | 13.96348 | 35268 ft | 445 kts | 336° |
| 2026-05-07 21:00 | 55.62284 | 13.91677 | 35408 ft | 451 kts | 336° |
| 2026-05-07 21:01 | 55.67982 | 13.86971 | 35510 ft | 456 kts | 336° |
| 2026-05-07 21:01 | 55.73751 | 13.82189 | 35605 ft | 459 kts | 336° |
| 2026-05-07 21:02 | 55.79586 | 13.77335 | 35773 ft | 460 kts | 336° |
| 2026-05-07 21:02 | 55.82446 | 13.74950 | 35878 ft | 460 kts | 336° |
| 2026-05-07 21:02 | 55.85354 | 13.72521 | 35965 ft | 460 kts | 336° |
| 2026-05-07 21:03 | 55.91177 | 13.67647 | 36112 ft | 460 kts | 336° |
| 2026-05-07 21:03 | 55.96956 | 13.62789 | 36163 ft | 460 kts | 335° |
| 2026-05-07 21:04 | 56.02742 | 13.57910 | 36154 ft | 460 kts | 335° |
| 2026-05-07 21:04 | 56.08528 | 13.53017 | 36158 ft | 459 kts | 335° |
| 2026-05-07 21:05 | 56.14222 | 13.48185 | 36165 ft | 458 kts | 335° |
| 2026-05-07 21:05 | 56.20025 | 13.43246 | 36168 ft | 458 kts | 335° |
| 2026-05-07 21:06 | 56.25755 | 13.38350 | 36153 ft | 457 kts | 335° |
| 2026-05-07 21:06 | 56.31492 | 13.33430 | 36149 ft | 457 kts | 335° |
| 2026-05-07 21:07 | 56.37246 | 13.28481 | 36157 ft | 457 kts | 335° |
| 2026-05-07 21:07 | 56.42961 | 13.23551 | 36150 ft | 455 kts | 335° |
| 2026-05-07 21:08 | 56.48689 | 13.18595 | 36148 ft | 455 kts | 334° |
| 2026-05-07 21:08 | 56.54377 | 13.13653 | 36141 ft | 454 kts | 334° |
| 2026-05-07 21:09 | 56.60063 | 13.08697 | 36139 ft | 454 kts | 334° |
| 2026-05-07 21:09 | 56.65756 | 13.03719 | 36147 ft | 454 kts | 334° |
| 2026-05-07 21:10 | 56.71454 | 12.98719 | 36142 ft | 454 kts | 334° |
| 2026-05-07 21:10 | 56.77134 | 12.93718 | 36145 ft | 454 kts | 334° |
| 2026-05-07 21:11 | 56.82829 | 12.88689 | 36146 ft | 454 kts | 334° |
| 2026-05-07 21:11 | 56.91336 | 12.81148 | 36140 ft | 453 kts | 334° |
| 2026-05-07 21:12 | 56.96968 | 12.76129 | 36144 ft | 453 kts | 334° |
| 2026-05-07 21:12 | 57.02671 | 12.71032 | 36142 ft | 453 kts | 334° |
| 2026-05-07 21:13 | 57.08315 | 12.65969 | 36138 ft | 453 kts | 334° |
| 2026-05-07 21:13 | 57.13989 | 12.60862 | 36138 ft | 453 kts | 334° |
| 2026-05-07 21:14 | 57.19676 | 12.55726 | 36136 ft | 452 kts | 334° |
| 2026-05-07 21:14 | 57.25305 | 12.50625 | 36134 ft | 452 kts | 334° |
| 2026-05-07 21:15 | 57.30951 | 12.45490 | 36134 ft | 451 kts | 334° |
| 2026-05-07 21:15 | 57.36591 | 12.40343 | 36138 ft | 451 kts | 334° |
| 2026-05-07 21:16 | 57.42193 | 12.35214 | 36142 ft | 450 kts | 334° |
| 2026-05-07 21:16 | 57.47837 | 12.30025 | 36142 ft | 450 kts | 333° |
| 2026-05-07 21:17 | 57.53453 | 12.24846 | 36144 ft | 451 kts | 333° |
| 2026-05-07 21:17 | 57.59067 | 12.19654 | 36145 ft | 450 kts | 333° |
| 2026-05-07 21:18 | 57.64677 | 12.14446 | 36146 ft | 449 kts | 332° |
| 2026-05-07 21:18 | 57.70260 | 12.09245 | 36146 ft | 449 kts | 332° |
| 2026-05-07 21:19 | 57.75829 | 12.04036 | 36148 ft | 449 kts | 332° |
| 2026-05-07 21:19 | 57.81447 | 11.98762 | 36145 ft | 449 kts | 332° |
| 2026-05-07 21:20 | 57.87001 | 11.93532 | 36146 ft | 449 kts | 332° |
| 2026-05-07 21:20 | 57.92600 | 11.88240 | 36146 ft | 450 kts | 332° |
| 2026-05-07 21:21 | 57.98188 | 11.82937 | 36145 ft | 451 kts | 332° |
| 2026-05-07 21:21 | 58.03772 | 11.77619 | 36140 ft | 450 kts | 331° |
| 2026-05-07 21:22 | 58.09371 | 11.72265 | 36142 ft | 449 kts | 332° |
| 2026-05-07 21:22 | 58.15107 | 11.67390 | 36141 ft | 450 kts | 337° |
| 2026-05-07 21:23 | 58.21081 | 11.63701 | 36140 ft | 451 kts | 343° |
| 2026-05-07 21:23 | 58.27219 | 11.61225 | 36138 ft | 450 kts | 348° |
| 2026-05-07 21:24 | 58.33316 | 11.59293 | 36140 ft | 439 kts | 348° |
| 2026-05-07 21:24 | 58.39354 | 11.57387 | 36137 ft | 438 kts | 348° |
| 2026-05-07 21:25 | 58.45354 | 11.55477 | 36136 ft | 438 kts | 348° |
| 2026-05-07 21:25 | 58.51366 | 11.53548 | 36134 ft | 437 kts | 348° |
| 2026-05-07 21:26 | 58.54394 | 11.52572 | 35949 ft | 440 kts | 348° |
| 2026-05-07 21:26 | 58.57427 | 11.51592 | 35282 ft | 443 kts | 347° |
| 2026-05-07 21:26 | 58.60444 | 11.50618 | 34595 ft | 444 kts | 347° |
| 2026-05-07 21:26 | 58.63526 | 11.49618 | 33838 ft | 444 kts | 348° |
| 2026-05-07 21:27 | 58.66573 | 11.48630 | 33117 ft | 443 kts | 347° |
| 2026-05-07 21:27 | 58.69584 | 11.47654 | 32406 ft | 443 kts | 347° |
| 2026-05-07 21:27 | 58.72617 | 11.46668 | 31803 ft | 439 kts | 347° |
| 2026-05-07 21:27 | 58.75606 | 11.45695 | 31351 ft | 433 kts | 347° |
| 2026-05-07 21:28 | 58.78562 | 11.44733 | 30893 ft | 428 kts | 347° |
| 2026-05-07 21:28 | 58.81522 | 11.43764 | 30422 ft | 422 kts | 347° |
| 2026-05-07 21:28 | 58.84409 | 11.42817 | 29957 ft | 417 kts | 347° |
| 2026-05-07 21:28 | 58.87236 | 11.41887 | 29507 ft | 413 kts | 347° |
| 2026-05-07 21:29 | 58.90041 | 11.40964 | 29055 ft | 408 kts | 347° |
| 2026-05-07 21:29 | 58.92841 | 11.40039 | 28604 ft | 404 kts | 346° |
| 2026-05-07 21:29 | 58.95587 | 11.39130 | 28149 ft | 400 kts | 347° |
| 2026-05-07 21:29 | 58.98335 | 11.38217 | 27703 ft | 396 kts | 347° |
| 2026-05-07 21:30 | 59.01015 | 11.37329 | 27263 ft | 392 kts | 347° |
| 2026-05-07 21:30 | 59.03719 | 11.36430 | 26818 ft | 388 kts | 347° |
| 2026-05-07 21:30 | 59.06369 | 11.35548 | 26376 ft | 385 kts | 347° |
| 2026-05-07 21:30 | 59.09006 | 11.34666 | 25935 ft | 381 kts | 346° |
| 2026-05-07 21:31 | 59.11635 | 11.33789 | 25616 ft | 374 kts | 346° |
| 2026-05-07 21:31 | 59.14185 | 11.32944 | 25506 ft | 361 kts | 346° |
| 2026-05-07 21:31 | 59.16658 | 11.32240 | 25332 ft | 352 kts | 352° |
| 2026-05-07 21:31 | 59.19089 | 11.32392 | 25173 ft | 348 kts | 2° |
| 2026-05-07 21:32 | 59.21480 | 11.33446 | 24745 ft | 351 kts | 11° |
| 2026-05-07 21:32 | 59.23798 | 11.34878 | 24348 ft | 349 kts | 12° |
| 2026-05-07 21:32 | 59.26109 | 11.36364 | 23958 ft | 347 kts | 12° |
| 2026-05-07 21:32 | 59.28411 | 11.37843 | 23578 ft | 344 kts | 12° |
| 2026-05-07 21:33 | 59.30689 | 11.39294 | 23193 ft | 342 kts | 12° |
| 2026-05-07 21:33 | 59.32939 | 11.40722 | 22810 ft | 339 kts | 12° |
| 2026-05-07 21:33 | 59.35207 | 11.42156 | 22421 ft | 337 kts | 12° |
| 2026-05-07 21:33 | 59.37420 | 11.43555 | 22031 ft | 335 kts | 12° |
| 2026-05-07 21:34 | 59.39658 | 11.44973 | 21636 ft | 334 kts | 13° |
| 2026-05-07 21:34 | 59.41857 | 11.46369 | 21255 ft | 332 kts | 13° |
| 2026-05-07 21:34 | 59.44056 | 11.47761 | 20867 ft | 330 kts | 12° |
| 2026-05-07 21:34 | 59.46250 | 11.49146 | 20481 ft | 328 kts | 12° |
| 2026-05-07 21:35 | 59.48426 | 11.50521 | 20095 ft | 327 kts | 13° |
| 2026-05-07 21:35 | 59.50603 | 11.51895 | 19709 ft | 325 kts | 13° |
| 2026-05-07 21:35 | 59.52744 | 11.53250 | 19328 ft | 323 kts | 13° |
| 2026-05-07 21:35 | 59.54874 | 11.54598 | 18945 ft | 322 kts | 13° |
| 2026-05-07 21:36 | 59.57023 | 11.55962 | 18567 ft | 320 kts | 13° |
| 2026-05-07 21:36 | 59.59126 | 11.57298 | 18193 ft | 319 kts | 13° |
| 2026-05-07 21:36 | 59.61248 | 11.58648 | 17818 ft | 317 kts | 13° |
| 2026-05-07 21:36 | 59.63370 | 11.59999 | 17444 ft | 316 kts | 13° |
| 2026-05-07 21:37 | 59.65465 | 11.61336 | 17080 ft | 315 kts | 13° |
| 2026-05-07 21:37 | 59.67527 | 11.62653 | 16704 ft | 313 kts | 13° |
| 2026-05-07 21:37 | 59.69592 | 11.63973 | 16339 ft | 312 kts | 13° |
| 2026-05-07 21:37 | 59.71663 | 11.65297 | 15966 ft | 310 kts | 14° |
| 2026-05-07 21:38 | 59.73728 | 11.66620 | 15603 ft | 308 kts | 15° |
| 2026-05-07 21:38 | 59.75778 | 11.67935 | 15236 ft | 307 kts | 15° |
| 2026-05-07 21:38 | 59.77787 | 11.69227 | 14877 ft | 305 kts | 15° |
| 2026-05-07 21:38 | 59.79710 | 11.70465 | 14533 ft | 303 kts | 15° |
| 2026-05-07 21:39 | 59.81705 | 11.71753 | 14177 ft | 301 kts | 15° |
| 2026-05-07 21:39 | 59.83681 | 11.73027 | 13829 ft | 300 kts | 15° |
| 2026-05-07 21:39 | 59.85678 | 11.74316 | 13466 ft | 298 kts | 15° |
| 2026-05-07 21:39 | 59.87662 | 11.75601 | 13106 ft | 296 kts | 15° |
| 2026-05-07 21:40 | 59.89628 | 11.76873 | 12750 ft | 295 kts | 15° |
| 2026-05-07 21:40 | 59.91568 | 11.78131 | 12401 ft | 293 kts | 16° |
| 2026-05-07 21:40 | 59.93515 | 11.79396 | 12059 ft | 292 kts | 16° |
| 2026-05-07 21:40 | 59.95462 | 11.80665 | 11967 ft | 293 kts | 16° |
| 2026-05-07 21:41 | 59.97393 | 11.81926 | 11596 ft | 292 kts | 16° |
| 2026-05-07 21:41 | 59.99305 | 11.83175 | 11225 ft | 291 kts | 16° |
| 2026-05-07 21:41 | 60.01238 | 11.84439 | 10877 ft | 289 kts | 17° |
| 2026-05-07 21:41 | 60.03147 | 11.85690 | 10373 ft | 293 kts | 17° |
| 2026-05-07 21:42 | 60.05071 | 11.86951 | 10087 ft | 289 kts | 18° |
| 2026-05-07 21:42 | 60.06953 | 11.88188 | 9806 ft | 284 kts | 18° |
| 2026-05-07 21:42 | 60.08817 | 11.89418 | 9492 ft | 281 kts | 18° |
| 2026-05-07 21:42 | 60.10688 | 11.90565 | 9189 ft | 276 kts | 14° |
| 2026-05-07 21:43 | 60.12544 | 11.91368 | 9121 ft | 261 kts | 9° |
| 2026-05-07 21:43 | 60.14320 | 11.91930 | 9126 ft | 255 kts | 7° |
| 2026-05-07 21:43 | 60.16071 | 11.92448 | 9127 ft | 255 kts | 7° |
| 2026-05-07 21:43 | 60.17843 | 11.92968 | 9131 ft | 255 kts | 7° |
| 2026-05-07 21:44 | 60.19584 | 11.93484 | 9134 ft | 255 kts | 7° |
| 2026-05-07 21:44 | 60.21341 | 11.94012 | 9134 ft | 255 kts | 7° |
| 2026-05-07 21:44 | 60.23119 | 11.94549 | 9130 ft | 255 kts | 7° |
| 2026-05-07 21:44 | 60.24869 | 11.95079 | 9138 ft | 255 kts | 8° |
| 2026-05-07 21:45 | 60.26627 | 11.95852 | 9134 ft | 255 kts | 15° |
| 2026-05-07 21:45 | 60.28308 | 11.97020 | 9141 ft | 256 kts | 19° |
| 2026-05-07 21:45 | 60.29981 | 11.98305 | 9144 ft | 255 kts | 20° |
| 2026-05-07 21:45 | 60.31647 | 11.99606 | 9144 ft | 255 kts | 20° |
| 2026-05-07 21:46 | 60.33322 | 12.00907 | 9130 ft | 255 kts | 20° |
| 2026-05-07 21:46 | 60.34976 | 12.02189 | 9129 ft | 255 kts | 20° |
| 2026-05-07 21:46 | 60.36682 | 12.03222 | 9125 ft | 254 kts | 8° |
| 2026-05-07 21:46 | 60.38437 | 12.03514 | 9127 ft | 254 kts | 0° |
| 2026-05-07 21:47 | 60.40215 | 12.03533 | 9138 ft | 254 kts | 359° |
| 2026-05-07 21:47 | 60.41986 | 12.03516 | 9138 ft | 254 kts | 358° |
| 2026-05-07 21:47 | 60.43739 | 12.03512 | 9135 ft | 253 kts | 359° |
| 2026-05-07 21:47 | 60.45513 | 12.03523 | 9137 ft | 253 kts | 359° |
| 2026-05-07 21:48 | 60.47245 | 12.03387 | 9131 ft | 252 kts | 350° |
| 2026-05-07 21:48 | 60.48954 | 12.02537 | 9145 ft | 250 kts | 340° |
| 2026-05-07 21:48 | 60.50578 | 12.01362 | 9151 ft | 250 kts | 338° |
| 2026-05-07 21:48 | 60.52224 | 12.00117 | 9141 ft | 250 kts | 338° |
| 2026-05-07 21:49 | 60.53840 | 11.98901 | 9130 ft | 251 kts | 338° |
| 2026-05-07 21:49 | 60.55509 | 11.97660 | 9133 ft | 252 kts | 339° |
| 2026-05-07 21:49 | 60.57133 | 11.96413 | 9132 ft | 251 kts | 334° |
| 2026-05-07 21:49 | 60.58669 | 11.94682 | 9125 ft | 250 kts | 324° |
| 2026-05-07 21:50 | 60.60070 | 11.92623 | 9134 ft | 249 kts | 321° |
| 2026-05-07 21:50 | 60.61452 | 11.90490 | 9136 ft | 249 kts | 321° |
| 2026-05-07 21:50 | 60.62634 | 11.87984 | 9108 ft | 245 kts | 294° |
| 2026-05-07 21:50 | 60.62954 | 11.84644 | 9128 ft | 242 kts | 262° |
| 2026-05-07 21:51 | 60.62374 | 11.81463 | 9131 ft | 242 kts | 233° |
| 2026-05-07 21:51 | 60.61208 | 11.78989 | 9145 ft | 242 kts | 225° |
| 2026-05-07 21:51 | 60.60009 | 11.76602 | 9136 ft | 242 kts | 225° |
| 2026-05-07 21:51 | 60.58813 | 11.74188 | 9130 ft | 242 kts | 226° |
| 2026-05-07 21:52 | 60.57620 | 11.71762 | 9131 ft | 242 kts | 226° |
| 2026-05-07 21:52 | 60.56434 | 11.69341 | 9127 ft | 242 kts | 226° |
| 2026-05-07 21:52 | 60.55234 | 11.66886 | 8894 ft | 244 kts | 226° |
| 2026-05-07 21:52 | 60.54041 | 11.64444 | 8542 ft | 244 kts | 225° |
| 2026-05-07 21:53 | 60.52856 | 11.62020 | 8217 ft | 242 kts | 225° |
| 2026-05-07 21:53 | 60.51667 | 11.59593 | 7904 ft | 239 kts | 225° |
| 2026-05-07 21:53 | 60.50496 | 11.57207 | 7598 ft | 238 kts | 225° |
| 2026-05-07 21:53 | 60.49330 | 11.54834 | 7294 ft | 239 kts | 224° |
| 2026-05-07 21:54 | 60.48166 | 11.52469 | 6987 ft | 239 kts | 224° |
| 2026-05-07 21:54 | 60.47001 | 11.50103 | 6683 ft | 238 kts | 224° |
| 2026-05-07 21:54 | 60.45833 | 11.47735 | 6378 ft | 236 kts | 224° |
| 2026-05-07 21:54 | 60.44668 | 11.45373 | 6072 ft | 235 kts | 224° |
| 2026-05-07 21:55 | 60.43524 | 11.43056 | 5780 ft | 234 kts | 224° |
| 2026-05-07 21:55 | 60.42422 | 11.40615 | 5469 ft | 234 kts | 236° |
| 2026-05-07 21:55 | 60.41758 | 11.37592 | 5189 ft | 236 kts | 254° |
| 2026-05-07 21:55 | 60.41354 | 11.34341 | 5129 ft | 238 kts | 255° |
| 2026-05-07 21:56 | 60.40972 | 11.31074 | 4914 ft | 239 kts | 255° |
| 2026-05-07 21:56 | 60.40586 | 11.27826 | 4593 ft | 238 kts | 254° |
| 2026-05-07 21:56 | 60.40058 | 11.24651 | 4231 ft | 236 kts | 234° |
| 2026-05-07 21:56 | 60.38824 | 11.22688 | 4024 ft | 227 kts | 195° |
| 2026-05-07 21:57 | 60.37295 | 11.21934 | 3875 ft | 228 kts | 191° |
| 2026-05-07 21:57 | 60.35752 | 11.21176 | 3704 ft | 227 kts | 192° |
| 2026-05-07 21:57 | 60.34245 | 11.20369 | 3532 ft | 221 kts | 193° |
| 2026-05-07 21:57 | 60.32818 | 11.19566 | 3496 ft | 212 kts | 193° |
| 2026-05-07 21:58 | 60.31388 | 11.18748 | 3495 ft | 212 kts | 194° |
| 2026-05-07 21:58 | 60.29966 | 11.17927 | 3473 ft | 213 kts | 194° |
| 2026-05-07 21:58 | 60.28536 | 11.17062 | 3067 ft | 210 kts | 194° |
| 2026-05-07 21:58 | 60.27263 | 11.16346 | 3228 ft | 175 kts | 193° |
| 2026-05-07 21:59 | 60.26020 | 11.15650 | 3506 ft | 200 kts | 193° |
| 2026-05-07 21:59 | 60.24597 | 11.14836 | 3729 ft | 218 kts | 194° |
| 2026-05-07 21:59 | 60.23117 | 11.13978 | 3514 ft | 225 kts | 194° |
| 2026-05-07 21:59 | 60.21616 | 11.13104 | 3472 ft | 226 kts | 194° |
| 2026-05-07 22:00 | 60.20094 | 11.12219 | 3461 ft | 223 kts | 194° |
| 2026-05-07 22:00 | 60.18599 | 11.11351 | 3147 ft | 222 kts | 194° |
| 2026-05-07 22:00 | 60.17129 | 11.10503 | 3007 ft | 222 kts | 194° |
| 2026-05-07 22:00 | 60.15637 | 11.09642 | 3004 ft | 224 kts | 194° |
| 2026-05-07 22:01 | 60.14121 | 11.08853 | 3001 ft | 223 kts | 189° |
| 2026-05-07 22:01 | 60.12582 | 11.08476 | 3000 ft | 222 kts | 181° |
| 2026-05-07 22:01 | 60.11027 | 11.08436 | 2999 ft | 222 kts | 179° |
| 2026-05-07 22:01 | 60.09503 | 11.08762 | 2981 ft | 222 kts | 157° |
| 2026-05-07 22:02 | 60.08340 | 11.10772 | 3001 ft | 223 kts | 121° |
| 2026-05-07 22:02 | 60.07905 | 11.13706 | 2997 ft | 225 kts | 90° |
| 2026-05-07 22:02 | 60.08323 | 11.16705 | 2992 ft | 228 kts | 58° |
| 2026-05-07 22:02 | 60.09515 | 11.18815 | 2998 ft | 233 kts | 25° |
| 2026-05-07 22:03 | 60.11054 | 11.19856 | 3004 ft | 234 kts | 19° |
| 2026-05-07 22:03 | 60.12606 | 11.20831 | 3001 ft | 234 kts | 19° |
| 2026-05-07 22:03 | 60.14169 | 11.21832 | 2999 ft | 233 kts | 19° |
| 2026-05-07 22:03 | 60.15707 | 11.22826 | 2999 ft | 233 kts | 19° |
| 2026-05-07 22:04 | 60.17261 | 11.23838 | 2999 ft | 233 kts | 19° |
| 2026-05-07 22:04 | 60.18802 | 11.24846 | 2998 ft | 233 kts | 19° |
| 2026-05-07 22:04 | 60.20357 | 11.25865 | 2998 ft | 233 kts | 19° |
| 2026-05-07 22:04 | 60.21887 | 11.26867 | 2998 ft | 233 kts | 20° |
| 2026-05-07 22:05 | 60.23425 | 11.27876 | 2998 ft | 233 kts | 20° |
| 2026-05-07 22:05 | 60.24959 | 11.28888 | 2998 ft | 233 kts | 20° |
| 2026-05-07 22:05 | 60.26502 | 11.29905 | 3000 ft | 233 kts | 20° |
| 2026-05-07 22:05 | 60.28060 | 11.30933 | 2998 ft | 233 kts | 20° |
| 2026-05-07 22:06 | 60.29608 | 11.31954 | 2998 ft | 232 kts | 20° |
| 2026-05-07 22:06 | 60.31138 | 11.32966 | 2997 ft | 232 kts | 20° |
| 2026-05-07 22:06 | 60.32692 | 11.33994 | 2997 ft | 232 kts | 20° |
| 2026-05-07 22:06 | 60.34229 | 11.35012 | 2997 ft | 233 kts | 20° |
| 2026-05-07 22:07 | 60.35781 | 11.36042 | 2996 ft | 232 kts | 20° |
| 2026-05-07 22:07 | 60.37332 | 11.37071 | 3000 ft | 232 kts | 19° |
| 2026-05-07 22:07 | 60.38923 | 11.37536 | 2975 ft | 235 kts | 350° |
| 2026-05-07 22:07 | 60.40361 | 11.36033 | 2986 ft | 237 kts | 312° |
| 2026-05-07 22:08 | 60.41120 | 11.33086 | 2990 ft | 236 kts | 277° |
| 2026-05-07 22:08 | 60.40976 | 11.29807 | 3001 ft | 234 kts | 252° |
| 2026-05-07 22:08 | 60.40529 | 11.26678 | 2996 ft | 233 kts | 251° |
| 2026-05-07 22:08 | 60.39793 | 11.23840 | 2949 ft | 220 kts | 218° |
| 2026-05-07 22:09 | 60.38487 | 11.22570 | 2986 ft | 210 kts | 192° |
| 2026-05-07 22:09 | 60.37065 | 11.21883 | 2997 ft | 210 kts | 191° |
| 2026-05-07 22:09 | 60.35638 | 11.21175 | 2995 ft | 210 kts | 192° |
| 2026-05-07 22:09 | 60.34232 | 11.20413 | 2996 ft | 210 kts | 193° |
| 2026-05-07 22:10 | 60.32834 | 11.19615 | 2994 ft | 209 kts | 194° |
| 2026-05-07 22:10 | 60.31424 | 11.18794 | 2968 ft | 209 kts | 194° |
| 2026-05-07 22:10 | 60.30032 | 11.17983 | 2753 ft | 209 kts | 194° |
| 2026-05-07 22:10 | 60.28651 | 11.17180 | 2556 ft | 201 kts | 194° |
| 2026-05-07 22:11 | 60.27332 | 11.16416 | 2257 ft | 194 kts | 194° |
| 2026-05-07 22:11 | 60.26074 | 11.15687 | 1956 ft | 180 kts | 194° |
| 2026-05-07 22:11 | 60.24919 | 11.15019 | 1729 ft | 165 kts | 194° |
| 2026-05-07 22:11 | 60.23866 | 11.14412 | 1488 ft | 153 kts | 194° |
| 2026-05-07 22:12 | 60.22858 | 11.13826 | 1256 ft | 149 kts | 195° |
| 2026-05-07 22:12 | 60.21862 | 11.13249 | 1083 ft | 149 kts | 195° |
| 2026-05-07 22:12 | 60.20860 | 11.12671 | 886 ft | 148 kts | 194° |
| 2026-05-07 22:12 | 60.19871 | 11.12106 | 726 ft | 148 kts | 195° |
| 2026-05-07 22:13 | 60.18957 | 11.11579 | 701 ft | 117 kts | 196° |
| 2026-05-07 22:13 | 60.18344 | 11.11227 | 704 ft | 67 kts | 196° |
| 2026-05-07 22:13 | 60.18045 | 11.10962 | 688 ft | 30 kts | 227° |
| 2026-05-07 22:13 | 60.18027 | 11.10727 | 685 ft | 0 kts | 285° |
| 2026-05-07 22:14 | 60.18027 | 11.10726 | 685 ft | 0 kts | 285° |
| 2026-05-07 22:14 | 60.18033 | 11.10681 | 685 ft | 7 kts | 285° |
| 2026-05-07 22:14 | 60.18057 | 11.10529 | 688 ft | 14 kts | 297° |
| 2026-05-07 22:15 | 60.18164 | 11.10522 | 691 ft | 20 kts | 17° |
| 2026-05-07 22:15 | 60.18314 | 11.10611 | 697 ft | 24 kts | 16° |
| 2026-05-07 22:15 | 60.18497 | 11.10717 | 701 ft | 29 kts | 15° |
| 2026-05-07 22:15 | 60.18715 | 11.10840 | 697 ft | 33 kts | 15° |
| 2026-05-07 22:16 | 60.18931 | 11.10972 | 697 ft | 30 kts | 17° |
| 2026-05-07 22:16 | 60.19130 | 11.11087 | 695 ft | 28 kts | 16° |
| 2026-05-07 22:16 | 60.19317 | 11.11196 | 688 ft | 29 kts | 16° |
| 2026-05-07 22:16 | 60.19408 | 11.11124 | 687 ft | 15 kts | 287° |
| 2026-05-07 22:17 | 60.19441 | 11.10911 | 687 ft | 16 kts | 287° |
| 2026-05-07 22:17 | 60.19474 | 11.10681 | 687 ft | 17 kts | 287° |
| 2026-05-07 22:17 | 60.19510 | 11.10447 | 687 ft | 17 kts | 286° |
| 2026-05-07 22:17 | 60.19554 | 11.10235 | 687 ft | 13 kts | 285° |
| 2026-05-07 22:18 | 60.19565 | 11.10167 | 687 ft | 0 kts | 285° |
| 2026-05-07 22:18 | 60.19569 | 11.10143 | 687 ft | 0 kts | 287° |